sensor_id;sensor_type;location;lat;lon;timestamp;noise_LAeq;noise_LA_min;noise_LA_max;noise_LA01;noise_LA95
68945;Laerm;55984;48.790;8.990;2022-10-26T00:01:39;48.75;46.56;52.20;;
68945;Laerm;55984;48.790;8.990;2022-10-26T00:04:05;48.53;46.37;51.34;;
68945;Laerm;55984;48.790;8.990;2022-10-26T00:06:30;48.06;46.43;51.52;;
68945;Laerm;55984;48.790;8.990;2022-10-26T00:08:56;48.05;46.41;51.40;;
68945;Laerm;55984;48.790;8.990;2022-10-26T00:11:22;48.55;46.34;51.84;;
68945;Laerm;55984;48.790;8.990;2022-10-26T00:13:48;48.49;46.50;51.36;;
68945;Laerm;55984;48.790;8.990;2022-10-26T00:16:22;48.74;46.56;51.24;;
68945;Laerm;55984;48.790;8.990;2022-10-26T00:18:48;48.80;46.51;51.71;;
68945;Laerm;55984;48.790;8.990;2022-10-26T00:21:14;48.84;46.68;52.04;;
68945;Laerm;55984;48.790;8.990;2022-10-26T00:23:39;48.68;46.50;52.33;;
68945;Laerm;55984;48.790;8.990;2022-10-26T00:26:05;48.38;46.40;52.87;;
68945;Laerm;55984;48.790;8.990;2022-10-26T00:28:31;48.57;46.44;52.03;;
68945;Laerm;55984;48.790;8.990;2022-10-26T00:31:06;48.55;46.51;51.93;;
68945;Laerm;55984;48.790;8.990;2022-10-26T00:33:32;48.10;46.27;51.38;;
68945;Laerm;55984;48.790;8.990;2022-10-26T00:35:58;48.76;46.47;52.27;;
68945;Laerm;55984;48.790;8.990;2022-10-26T00:38:23;48.07;46.46;51.90;;
68945;Laerm;55984;48.790;8.990;2022-10-26T00:40:49;48.55;46.47;51.62;;
68945;Laerm;55984;48.790;8.990;2022-10-26T00:43:37;48.80;46.46;52.64;;
68945;Laerm;55984;48.790;8.990;2022-10-26T00:46:05;49.67;46.70;53.31;;
68945;Laerm;55984;48.790;8.990;2022-10-26T00:48:38;49.68;46.61;53.15;;
68945;Laerm;55984;48.790;8.990;2022-10-26T00:51:08;49.64;46.85;52.71;;
68945;Laerm;55984;48.790;8.990;2022-10-26T00:53:35;49.37;46.69;52.37;;
68945;Laerm;55984;48.790;8.990;2022-10-26T00:56:01;49.33;46.94;52.77;;
68945;Laerm;55984;48.790;8.990;2022-10-26T00:58:27;49.40;47.04;52.09;;
68945;Laerm;55984;48.790;8.990;2022-10-26T01:00:53;49.62;47.13;53.28;;
68945;Laerm;55984;48.790;8.990;2022-10-26T01:03:19;49.69;46.87;53.25;;
68945;Laerm;55984;48.790;8.990;2022-10-26T01:05:45;49.79;47.15;53.52;;
68945;Laerm;55984;48.790;8.990;2022-10-26T01:08:13;49.88;46.89;53.27;;
68945;Laerm;55984;48.790;8.990;2022-10-26T01:10:40;50.06;47.15;53.23;;
68945;Laerm;55984;48.790;8.990;2022-10-26T01:13:06;49.91;46.77;53.74;;
68945;Laerm;55984;48.790;8.990;2022-10-26T01:15:47;50.11;46.91;53.51;;
68945;Laerm;55984;48.790;8.990;2022-10-26T01:18:32;50.23;47.26;53.71;;
68945;Laerm;55984;48.790;8.990;2022-10-26T01:30:22;50.19;47.05;53.36;;
68945;Laerm;55984;48.790;8.990;2022-10-26T01:33:08;50.26;47.01;53.59;;
68945;Laerm;55984;48.790;8.990;2022-10-26T01:35:44;50.26;46.96;53.94;;
68945;Laerm;55984;48.790;8.990;2022-10-26T01:38:23;50.29;47.19;53.60;;
68945;Laerm;55984;48.790;8.990;2022-10-26T01:40:59;50.22;46.82;53.42;;
68945;Laerm;55984;48.790;8.990;2022-10-26T01:43:31;50.09;47.15;53.24;;
68945;Laerm;55984;48.790;8.990;2022-10-26T01:45:59;50.06;46.94;53.66;;
68945;Laerm;55984;48.790;8.990;2022-10-26T01:48:28;50.00;47.08;53.81;;
68945;Laerm;55984;48.790;8.990;2022-10-26T01:50:55;50.17;46.91;53.46;;
68945;Laerm;55984;48.790;8.990;2022-10-26T01:53:21;50.07;47.04;52.94;;
68945;Laerm;55984;48.790;8.990;2022-10-26T01:55:51;50.09;47.07;53.16;;
68945;Laerm;55984;48.790;8.990;2022-10-26T02:10:24;50.08;47.08;53.31;;
68945;Laerm;55984;48.790;8.990;2022-10-26T02:15:47;49.85;46.74;52.79;;
68945;Laerm;55984;48.790;8.990;2022-10-26T02:18:32;49.07;46.21;53.20;;
68945;Laerm;55984;48.790;8.990;2022-10-26T02:21:05;47.30;46.21;50.73;;
68945;Laerm;55984;48.790;8.990;2022-10-26T02:23:34;47.30;46.10;50.28;;
68945;Laerm;55984;48.790;8.990;2022-10-26T02:26:02;47.38;46.08;50.68;;
68945;Laerm;55984;48.790;8.990;2022-10-26T02:28:32;47.40;46.27;50.06;;
68945;Laerm;55984;48.790;8.990;2022-10-26T02:31:01;47.40;46.10;50.59;;
68945;Laerm;55984;48.790;8.990;2022-10-26T02:33:30;47.41;46.17;49.88;;
68945;Laerm;55984;48.790;8.990;2022-10-26T02:35:59;47.40;46.37;50.50;;
68945;Laerm;55984;48.790;8.990;2022-10-26T02:38:28;47.52;46.36;49.80;;
68945;Laerm;55984;48.790;8.990;2022-10-26T02:40:55;47.48;46.41;50.62;;
68945;Laerm;55984;48.790;8.990;2022-10-26T02:43:22;47.51;46.32;50.29;;
68945;Laerm;55984;48.790;8.990;2022-10-26T02:45:56;47.50;46.30;49.81;;
68945;Laerm;55984;48.790;8.990;2022-10-26T02:48:23;47.50;46.20;49.83;;
68945;Laerm;55984;48.790;8.990;2022-10-26T02:53:34;47.25;46.06;50.02;;
68945;Laerm;55984;48.790;8.990;2022-10-26T02:56:10;47.25;46.01;49.71;;
68945;Laerm;55984;48.790;8.990;2022-10-26T02:58:42;47.56;46.40;50.08;;
68945;Laerm;55984;48.790;8.990;2022-10-26T03:01:09;47.56;46.21;50.71;;
68945;Laerm;55984;48.790;8.990;2022-10-26T03:03:35;47.62;46.35;50.69;;
68945;Laerm;55984;48.790;8.990;2022-10-26T03:06:00;47.77;46.21;50.06;;
68945;Laerm;55984;48.790;8.990;2022-10-26T03:08:25;47.87;46.40;50.16;;
68945;Laerm;55984;48.790;8.990;2022-10-26T03:10:50;48.01;46.57;50.41;;
68945;Laerm;55984;48.790;8.990;2022-10-26T03:13:16;48.07;46.66;50.33;;
68945;Laerm;55984;48.790;8.990;2022-10-26T03:15:41;48.15;46.61;51.18;;
68945;Laerm;55984;48.790;8.990;2022-10-26T03:18:07;48.16;46.48;50.70;;
68945;Laerm;55984;48.790;8.990;2022-10-26T03:20:32;48.27;46.56;50.54;;
68945;Laerm;55984;48.790;8.990;2022-10-26T03:22:57;48.25;46.63;51.34;;
68945;Laerm;55984;48.790;8.990;2022-10-26T03:25:23;48.27;46.58;50.34;;
68945;Laerm;55984;48.790;8.990;2022-10-26T03:27:59;48.18;46.32;50.31;;
68945;Laerm;55984;48.790;8.990;2022-10-26T03:30:26;48.01;46.50;50.67;;
68945;Laerm;55984;48.790;8.990;2022-10-26T03:32:52;47.90;46.36;50.60;;
68945;Laerm;55984;48.790;8.990;2022-10-26T03:35:17;47.72;46.27;50.36;;
68945;Laerm;55984;48.790;8.990;2022-10-26T03:37:43;47.55;46.45;49.80;;
68945;Laerm;55984;48.790;8.990;2022-10-26T03:40:08;47.47;46.16;50.10;;
68945;Laerm;55984;48.790;8.990;2022-10-26T03:42:37;47.91;46.18;50.22;;
68945;Laerm;55984;48.790;8.990;2022-10-26T03:45:04;47.22;46.13;50.02;;
68945;Laerm;55984;48.790;8.990;2022-10-26T03:47:30;47.24;45.96;50.44;;
68945;Laerm;55984;48.790;8.990;2022-10-26T03:49:55;47.24;46.07;49.84;;
68945;Laerm;55984;48.790;8.990;2022-10-26T03:52:21;47.26;46.21;50.25;;
68945;Laerm;55984;48.790;8.990;2022-10-26T03:54:49;47.24;45.99;50.03;;
68945;Laerm;55984;48.790;8.990;2022-10-26T03:57:14;47.23;46.08;49.95;;
68945;Laerm;55984;48.790;8.990;2022-10-26T03:59:39;47.28;46.11;50.56;;
68945;Laerm;55984;48.790;8.990;2022-10-26T04:02:05;47.28;46.09;50.26;;
68945;Laerm;55984;48.790;8.990;2022-10-26T04:04:30;47.28;46.13;50.25;;
68945;Laerm;55984;48.790;8.990;2022-10-26T04:06:56;47.29;46.22;50.12;;
68945;Laerm;55984;48.790;8.990;2022-10-26T04:09:21;47.30;46.19;49.54;;
68945;Laerm;55984;48.790;8.990;2022-10-26T04:11:46;47.29;46.05;50.24;;
68945;Laerm;55984;48.790;8.990;2022-10-26T04:14:12;47.31;46.06;50.64;;
68945;Laerm;55984;48.790;8.990;2022-10-26T04:16:37;47.36;46.10;50.18;;
68945;Laerm;55984;48.790;8.990;2022-10-26T04:19:02;47.30;46.08;50.25;;
68945;Laerm;55984;48.790;8.990;2022-10-26T04:21:28;47.26;46.03;50.54;;
68945;Laerm;55984;48.790;8.990;2022-10-26T04:23:53;47.36;45.83;50.22;;
68945;Laerm;55984;48.790;8.990;2022-10-26T04:26:18;47.30;46.07;50.02;;
68945;Laerm;55984;48.790;8.990;2022-10-26T04:28:43;47.30;46.03;50.24;;
68945;Laerm;55984;48.790;8.990;2022-10-26T04:31:09;47.24;46.23;50.41;;
68945;Laerm;55984;48.790;8.990;2022-10-26T04:33:34;47.24;46.05;49.95;;
68945;Laerm;55984;48.790;8.990;2022-10-26T04:35:59;47.28;46.05;50.10;;
68945;Laerm;55984;48.790;8.990;2022-10-26T04:38:25;47.26;46.08;49.96;;
68945;Laerm;55984;48.790;8.990;2022-10-26T04:40:51;47.28;46.14;49.60;;
68945;Laerm;55984;48.790;8.990;2022-10-26T04:43:16;47.29;45.89;49.94;;
68945;Laerm;55984;48.790;8.990;2022-10-26T04:45:41;47.33;46.02;50.63;;
68945;Laerm;55984;48.790;8.990;2022-10-26T04:48:09;47.28;46.13;50.03;;
68945;Laerm;55984;48.790;8.990;2022-10-26T04:50:37;47.32;46.19;49.74;;
68945;Laerm;55984;48.790;8.990;2022-10-26T04:53:26;47.26;46.05;50.06;;
68945;Laerm;55984;48.790;8.990;2022-10-26T04:55:57;47.24;46.04;49.91;;
68945;Laerm;55984;48.790;8.990;2022-10-26T04:58:22;47.33;46.06;49.97;;
68945;Laerm;55984;48.790;8.990;2022-10-26T05:00:48;47.31;46.12;50.27;;
68945;Laerm;55984;48.790;8.990;2022-10-26T05:03:13;47.22;46.05;50.03;;
68945;Laerm;55984;48.790;8.990;2022-10-26T05:05:38;47.33;46.08;50.37;;
68945;Laerm;55984;48.790;8.990;2022-10-26T05:08:04;47.34;45.98;50.34;;
68945;Laerm;55984;48.790;8.990;2022-10-26T05:10:29;47.33;46.11;50.56;;
68945;Laerm;55984;48.790;8.990;2022-10-26T05:12:56;47.36;46.09;50.52;;
68945;Laerm;55984;48.790;8.990;2022-10-26T05:15:23;47.27;46.12;50.25;;
68945;Laerm;55984;48.790;8.990;2022-10-26T05:18:02;47.35;46.07;50.15;;
68945;Laerm;55984;48.790;8.990;2022-10-26T05:20:30;47.30;46.14;49.90;;
68945;Laerm;55984;48.790;8.990;2022-10-26T05:22:57;47.35;46.15;49.91;;
68945;Laerm;55984;48.790;8.990;2022-10-26T05:25:23;47.29;45.95;49.67;;
68945;Laerm;55984;48.790;8.990;2022-10-26T05:28:14;47.29;46.03;49.83;;
68945;Laerm;55984;48.790;8.990;2022-10-26T05:30:41;47.29;45.86;50.07;;
68945;Laerm;55984;48.790;8.990;2022-10-26T05:33:09;47.33;46.00;50.46;;
68945;Laerm;55984;48.790;8.990;2022-10-26T05:35:36;47.31;46.08;50.56;;
68945;Laerm;55984;48.790;8.990;2022-10-26T05:38:15;47.32;46.13;49.74;;
68945;Laerm;55984;48.790;8.990;2022-10-26T05:40:48;47.35;46.07;50.09;;
68945;Laerm;55984;48.790;8.990;2022-10-26T05:43:13;47.31;46.15;50.36;;
68945;Laerm;55984;48.790;8.990;2022-10-26T05:45:39;47.29;46.12;50.37;;
68945;Laerm;55984;48.790;8.990;2022-10-26T05:48:04;47.36;46.05;50.22;;
68945;Laerm;55984;48.790;8.990;2022-10-26T05:50:30;47.31;46.08;50.38;;
68945;Laerm;55984;48.790;8.990;2022-10-26T05:52:55;47.34;46.16;49.91;;
68945;Laerm;55984;48.790;8.990;2022-10-26T05:55:21;47.33;45.94;50.20;;
68945;Laerm;55984;48.790;8.990;2022-10-26T05:57:46;47.36;46.21;50.13;;
68945;Laerm;55984;48.790;8.990;2022-10-26T06:00:16;47.42;46.24;50.52;;
68945;Laerm;55984;48.790;8.990;2022-10-26T06:03:11;47.34;46.32;50.16;;
68945;Laerm;55984;48.790;8.990;2022-10-26T06:05:57;47.40;45.96;50.07;;
68945;Laerm;55984;48.790;8.990;2022-10-26T06:08:24;47.36;46.16;49.63;;
68945;Laerm;55984;48.790;8.990;2022-10-26T06:10:51;47.32;46.05;50.03;;
68945;Laerm;55984;48.790;8.990;2022-10-26T06:13:18;47.28;46.14;50.52;;
68945;Laerm;55984;48.790;8.990;2022-10-26T06:16:18;47.31;46.08;50.19;;
68945;Laerm;55984;48.790;8.990;2022-10-26T06:19:02;47.45;46.09;50.23;;
68945;Laerm;55984;48.790;8.990;2022-10-26T06:28:07;47.43;46.15;51.09;;
68945;Laerm;55984;48.790;8.990;2022-10-26T06:30:39;47.38;46.17;49.73;;
68945;Laerm;55984;48.790;8.990;2022-10-26T06:33:05;47.60;46.17;50.15;;
68945;Laerm;55984;48.790;8.990;2022-10-26T06:38:12;47.36;46.15;50.08;;
68945;Laerm;55984;48.790;8.990;2022-10-26T06:40:41;47.45;46.09;50.98;;
68945;Laerm;55984;48.790;8.990;2022-10-26T06:43:31;47.34;45.99;50.14;;
68945;Laerm;55984;48.790;8.990;2022-10-26T06:49:30;47.50;46.19;50.35;;
68945;Laerm;55984;48.790;8.990;2022-10-26T06:52:11;47.35;46.05;50.48;;
68945;Laerm;55984;48.790;8.990;2022-10-26T06:54:51;47.52;45.97;50.11;;
68945;Laerm;55984;48.790;8.990;2022-10-26T06:57:20;47.38;46.13;50.48;;
68945;Laerm;55984;48.790;8.990;2022-10-26T07:02:16;47.49;46.11;50.31;;
68945;Laerm;55984;48.790;8.990;2022-10-26T07:04:42;47.40;45.91;50.78;;
68945;Laerm;55984;48.790;8.990;2022-10-26T07:07:10;47.45;45.98;50.54;;
68945;Laerm;55984;48.790;8.990;2022-10-26T07:09:36;47.31;45.98;50.22;;
68945;Laerm;55984;48.790;8.990;2022-10-26T07:12:01;47.36;45.92;49.96;;
68945;Laerm;55984;48.790;8.990;2022-10-26T07:14:27;47.34;46.00;49.97;;
68945;Laerm;55984;48.790;8.990;2022-10-26T07:16:52;47.44;46.10;50.36;;
68945;Laerm;55984;48.790;8.990;2022-10-26T07:19:18;47.24;46.10;49.77;;
68945;Laerm;55984;48.790;8.990;2022-10-26T07:21:44;47.38;46.13;49.92;;
68945;Laerm;55984;48.790;8.990;2022-10-26T07:24:09;47.34;45.96;50.07;;
68945;Laerm;55984;48.790;8.990;2022-10-26T07:26:34;47.35;45.89;50.16;;
68945;Laerm;55984;48.790;8.990;2022-10-26T07:29:00;47.44;46.29;50.16;;
68945;Laerm;55984;48.790;8.990;2022-10-26T07:31:25;47.38;46.07;50.43;;
68945;Laerm;55984;48.790;8.990;2022-10-26T07:33:52;47.34;46.12;50.60;;
68945;Laerm;55984;48.790;8.990;2022-10-26T07:36:18;47.42;45.83;50.36;;
68945;Laerm;55984;48.790;8.990;2022-10-26T07:38:43;47.36;46.13;49.76;;
68945;Laerm;55984;48.790;8.990;2022-10-26T07:41:08;47.48;46.01;50.37;;
68945;Laerm;55984;48.790;8.990;2022-10-26T07:43:34;47.30;46.10;50.32;;
68945;Laerm;55984;48.790;8.990;2022-10-26T07:46:02;47.31;45.98;49.88;;
68945;Laerm;55984;48.790;8.990;2022-10-26T07:48:27;47.40;46.21;50.33;;
68945;Laerm;55984;48.790;8.990;2022-10-26T07:50:53;47.44;46.09;50.78;;
68945;Laerm;55984;48.790;8.990;2022-10-26T07:53:18;47.27;45.95;50.34;;
68945;Laerm;55984;48.790;8.990;2022-10-26T07:55:51;47.41;46.25;50.54;;
68945;Laerm;55984;48.790;8.990;2022-10-26T07:58:17;47.36;46.14;50.85;;
68945;Laerm;55984;48.790;8.990;2022-10-26T08:00:45;47.38;46.19;51.29;;
68945;Laerm;55984;48.790;8.990;2022-10-26T08:03:10;47.42;46.17;50.39;;
68945;Laerm;55984;48.790;8.990;2022-10-26T08:05:35;47.46;45.93;50.48;;
68945;Laerm;55984;48.790;8.990;2022-10-26T08:08:01;47.42;46.09;50.14;;
68945;Laerm;55984;48.790;8.990;2022-10-26T08:10:26;47.38;46.16;50.63;;
68945;Laerm;55984;48.790;8.990;2022-10-26T08:12:51;47.38;46.15;50.35;;
68945;Laerm;55984;48.790;8.990;2022-10-26T08:15:17;47.48;46.13;50.55;;
68945;Laerm;55984;48.790;8.990;2022-10-26T08:17:42;47.36;46.16;51.44;;
68945;Laerm;55984;48.790;8.990;2022-10-26T08:20:08;47.39;46.21;50.11;;
68945;Laerm;55984;48.790;8.990;2022-10-26T08:22:33;47.36;46.11;50.14;;
68945;Laerm;55984;48.790;8.990;2022-10-26T08:25:04;47.38;46.18;50.52;;
68945;Laerm;55984;48.790;8.990;2022-10-26T08:27:29;47.40;46.17;50.58;;
68945;Laerm;55984;48.790;8.990;2022-10-26T08:29:55;47.44;46.14;50.83;;
68945;Laerm;55984;48.790;8.990;2022-10-26T08:32:20;47.46;46.05;50.58;;
68945;Laerm;55984;48.790;8.990;2022-10-26T08:34:45;47.32;45.97;50.61;;
68945;Laerm;55984;48.790;8.990;2022-10-26T08:37:11;47.33;46.22;50.88;;
68945;Laerm;55984;48.790;8.990;2022-10-26T08:39:36;47.46;46.25;52.34;;
68945;Laerm;55984;48.790;8.990;2022-10-26T08:42:23;47.44;46.12;50.86;;
68945;Laerm;55984;48.790;8.990;2022-10-26T08:44:52;47.46;46.12;50.73;;
68945;Laerm;55984;48.790;8.990;2022-10-26T08:47:27;47.73;45.88;52.08;;
68945;Laerm;55984;48.790;8.990;2022-10-26T08:52:35;47.46;46.16;51.22;;
68945;Laerm;55984;48.790;8.990;2022-10-26T08:55:03;47.41;46.04;51.99;;
68945;Laerm;55984;48.790;8.990;2022-10-26T08:57:38;47.47;46.23;51.52;;
68945;Laerm;55984;48.790;8.990;2022-10-26T09:00:17;47.49;45.96;51.19;;
68945;Laerm;55984;48.790;8.990;2022-10-26T09:02:44;47.50;46.19;51.22;;
68945;Laerm;55984;48.790;8.990;2022-10-26T09:05:15;47.57;45.77;52.13;;
68945;Laerm;55984;48.790;8.990;2022-10-26T09:07:54;47.45;46.17;53.33;;
68945;Laerm;55984;48.790;8.990;2022-10-26T09:10:43;47.93;46.20;53.84;;
68945;Laerm;55984;48.790;8.990;2022-10-26T09:16:01;47.81;46.24;53.56;;
68945;Laerm;55984;48.790;8.990;2022-10-26T09:18:49;47.70;46.22;57.11;;
68945;Laerm;55984;48.790;8.990;2022-10-26T09:21:22;47.70;46.16;53.59;;
68945;Laerm;55984;48.790;8.990;2022-10-26T09:24:02;47.65;46.24;52.63;;
68945;Laerm;55984;48.790;8.990;2022-10-26T09:26:52;47.75;46.11;52.50;;
68945;Laerm;55984;48.790;8.990;2022-10-26T09:29:21;47.55;46.30;53.17;;
68945;Laerm;55984;48.790;8.990;2022-10-26T09:31:49;48.10;46.42;54.39;;
68945;Laerm;55984;48.790;8.990;2022-10-26T09:34:25;48.08;46.35;56.54;;
68945;Laerm;55984;48.790;8.990;2022-10-26T09:36:53;48.66;46.47;55.79;;
68945;Laerm;55984;48.790;8.990;2022-10-26T09:39:25;48.47;46.34;58.50;;
68945;Laerm;55984;48.790;8.990;2022-10-26T09:41:58;48.80;46.51;59.74;;
68945;Laerm;55984;48.790;8.990;2022-10-26T09:44:33;49.42;46.62;61.39;;
68945;Laerm;55984;48.790;8.990;2022-10-26T09:47:10;49.75;47.07;64.57;;
68945;Laerm;55984;48.790;8.990;2022-10-26T09:49:44;48.14;46.65;58.00;;
68945;Laerm;55984;48.790;8.990;2022-10-26T09:52:14;48.13;46.33;55.49;;
68945;Laerm;55984;48.790;8.990;2022-10-26T09:54:39;47.97;46.37;55.64;;
68945;Laerm;55984;48.790;8.990;2022-10-26T09:57:06;47.43;46.26;54.24;;
68945;Laerm;55984;48.790;8.990;2022-10-26T09:59:37;47.62;46.27;54.62;;
68945;Laerm;55984;48.790;8.990;2022-10-26T10:02:38;47.52;46.11;55.77;;
68945;Laerm;55984;48.790;8.990;2022-10-26T10:05:31;47.67;46.19;54.14;;
68945;Laerm;55984;48.790;8.990;2022-10-26T10:08:19;47.59;46.24;53.51;;
68945;Laerm;55984;48.790;8.990;2022-10-26T10:13:22;47.86;46.27;56.60;;
68945;Laerm;55984;48.790;8.990;2022-10-26T10:15:54;47.98;46.42;57.63;;
68945;Laerm;55984;48.790;8.990;2022-10-26T10:18:22;48.77;46.76;58.67;;
68945;Laerm;55984;48.790;8.990;2022-10-26T10:20:53;49.10;46.82;58.57;;
68945;Laerm;55984;48.790;8.990;2022-10-26T10:23:37;50.50;47.49;62.55;;
68945;Laerm;55984;48.790;8.990;2022-10-26T10:26:11;49.77;47.24;60.12;;
68945;Laerm;55984;48.790;8.990;2022-10-26T10:28:38;49.48;46.80;59.72;;
68945;Laerm;55984;48.790;8.990;2022-10-26T10:31:18;48.75;47.02;58.87;;
68945;Laerm;55984;48.790;8.990;2022-10-26T10:33:44;48.69;46.97;61.07;;
68945;Laerm;55984;48.790;8.990;2022-10-26T10:36:14;48.83;46.91;61.90;;
68945;Laerm;55984;48.790;8.990;2022-10-26T10:38:43;48.73;47.15;61.60;;
68945;Laerm;55984;48.790;8.990;2022-10-26T10:41:16;48.50;46.75;61.17;;
68945;Laerm;55984;48.790;8.990;2022-10-26T10:43:45;48.13;46.46;60.30;;
68945;Laerm;55984;48.790;8.990;2022-10-26T10:46:16;48.15;46.49;61.79;;
68945;Laerm;55984;48.790;8.990;2022-10-26T10:48:46;48.47;46.97;62.54;;
68945;Laerm;55984;48.790;8.990;2022-10-26T10:51:18;49.60;46.91;64.52;;
68945;Laerm;55984;48.790;8.990;2022-10-26T10:53:49;48.52;46.37;61.19;;
68945;Laerm;55984;48.790;8.990;2022-10-26T10:56:32;47.84;46.17;59.14;;
68945;Laerm;55984;48.790;8.990;2022-10-26T10:59:05;48.06;46.21;58.76;;
68945;Laerm;55984;48.790;8.990;2022-10-26T11:01:38;47.99;46.53;59.56;;
68945;Laerm;55984;48.790;8.990;2022-10-26T11:06:42;48.12;46.43;57.96;;
68945;Laerm;55984;48.790;8.990;2022-10-26T11:09:16;48.22;46.51;57.37;;
68945;Laerm;55984;48.790;8.990;2022-10-26T11:11:49;48.04;46.64;59.23;;
68945;Laerm;55984;48.790;8.990;2022-10-26T11:14:24;48.33;46.80;57.90;;
68945;Laerm;55984;48.790;8.990;2022-10-26T11:16:56;49.39;47.19;64.91;;
68945;Laerm;55984;48.790;8.990;2022-10-26T11:19:42;48.94;47.16;63.84;;
68945;Laerm;55984;48.790;8.990;2022-10-26T11:22:21;49.05;46.81;63.69;;
68945;Laerm;55984;48.790;8.990;2022-10-26T11:24:53;49.19;47.18;65.32;;
68945;Laerm;55984;48.790;8.990;2022-10-26T11:30:42;50.05;47.34;64.39;;
68945;Laerm;55984;48.790;8.990;2022-10-26T11:33:19;50.14;47.45;65.81;;
68945;Laerm;55984;48.790;8.990;2022-10-26T11:35:59;50.34;47.86;66.09;;
68945;Laerm;55984;48.790;8.990;2022-10-26T11:38:45;50.07;48.05;65.35;;
68945;Laerm;55984;48.790;8.990;2022-10-26T11:47:05;49.41;47.24;63.71;;
68945;Laerm;55984;48.790;8.990;2022-10-26T11:49:50;48.49;47.05;59.41;;
68945;Laerm;55984;48.790;8.990;2022-10-26T11:52:32;49.10;46.72;62.51;;
68945;Laerm;55984;48.790;8.990;2022-10-26T11:55:01;48.28;46.86;60.46;;
68945;Laerm;55984;48.790;8.990;2022-10-26T11:57:31;48.15;46.87;62.19;;
68945;Laerm;55984;48.790;8.990;2022-10-26T12:00:01;48.29;46.84;59.78;;
68945;Laerm;55984;48.790;8.990;2022-10-26T12:02:27;48.31;46.45;61.21;;
68945;Laerm;55984;48.790;8.990;2022-10-26T12:04:58;48.57;46.74;62.46;;
68945;Laerm;55984;48.790;8.990;2022-10-26T12:07:38;48.49;46.75;51.69;;
68945;Laerm;55984;48.790;8.990;2022-10-26T12:10:11;49.22;47.49;64.00;;
68945;Laerm;55984;48.790;8.990;2022-10-26T12:12:57;49.90;47.76;58.41;;
68945;Laerm;55984;48.790;8.990;2022-10-26T12:15:51;50.96;48.53;68.80;;
68945;Laerm;55984;48.790;8.990;2022-10-26T12:18:27;51.04;48.84;68.75;;
68945;Laerm;55984;48.790;8.990;2022-10-26T12:21:03;50.66;48.50;67.11;;
68945;Laerm;55984;48.790;8.990;2022-10-26T12:23:34;50.34;47.88;66.93;;
68945;Laerm;55984;48.790;8.990;2022-10-26T12:34:01;48.38;47.00;51.04;;
68945;Laerm;55984;48.790;8.990;2022-10-26T12:42:31;50.42;47.20;63.41;;
68945;Laerm;55984;48.790;8.990;2022-10-26T12:52:51;50.53;47.64;61.42;;
68945;Laerm;55984;48.790;8.990;2022-10-26T12:55:37;50.04;47.65;62.51;;
68945;Laerm;55984;48.790;8.990;2022-10-26T13:00:43;50.94;48.36;63.74;;
68945;Laerm;55984;48.790;8.990;2022-10-26T13:08:38;49.78;47.10;63.23;;
68945;Laerm;55984;48.790;8.990;2022-10-26T13:11:18;49.74;46.79;63.04;;
68945;Laerm;55984;48.790;8.990;2022-10-26T13:13:52;49.64;47.77;62.01;;
68945;Laerm;55984;48.790;8.990;2022-10-26T13:16:18;50.26;47.37;63.61;;
68945;Laerm;55984;48.790;8.990;2022-10-26T13:18:48;49.68;47.60;62.17;;
68945;Laerm;55984;48.790;8.990;2022-10-26T13:21:16;50.24;47.84;63.35;;
68945;Laerm;55984;48.790;8.990;2022-10-26T13:26:23;52.29;48.48;65.96;;
68945;Laerm;55984;48.790;8.990;2022-10-26T13:28:51;52.12;48.21;66.61;;
68945;Laerm;55984;48.790;8.990;2022-10-26T13:33:50;51.99;47.92;66.02;;
68945;Laerm;55984;48.790;8.990;2022-10-26T13:36:17;51.63;47.85;66.49;;
68945;Laerm;55984;48.790;8.990;2022-10-26T13:38:45;51.21;47.82;65.73;;
68945;Laerm;55984;48.790;8.990;2022-10-26T13:41:21;51.77;47.85;66.70;;
68945;Laerm;55984;48.790;8.990;2022-10-26T13:43:49;52.02;47.99;67.57;;
68945;Laerm;55984;48.790;8.990;2022-10-26T13:46:25;51.63;47.73;67.64;;
68945;Laerm;55984;48.790;8.990;2022-10-26T13:48:56;51.92;47.50;68.11;;
68945;Laerm;55984;48.790;8.990;2022-10-26T13:51:29;52.12;47.59;68.44;;
68945;Laerm;55984;48.790;8.990;2022-10-26T13:54:01;53.10;48.70;68.10;;
68945;Laerm;55984;48.790;8.990;2022-10-26T13:59:19;50.62;48.71;67.55;;
68945;Laerm;55984;48.790;8.990;2022-10-26T14:02:04;49.78;47.49;54.66;;
68945;Laerm;55984;48.790;8.990;2022-10-26T14:04:29;49.71;47.37;55.12;;
68945;Laerm;55984;48.790;8.990;2022-10-26T14:06:55;49.49;47.19;54.37;;
68945;Laerm;55984;48.790;8.990;2022-10-26T14:09:21;49.42;47.08;55.41;;
68945;Laerm;55984;48.790;8.990;2022-10-26T14:14:17;49.76;47.38;54.67;;
68945;Laerm;55984;48.790;8.990;2022-10-26T14:16:46;50.43;47.14;65.73;;
68945;Laerm;55984;48.790;8.990;2022-10-26T14:19:36;51.25;47.85;57.64;;
68945;Laerm;55984;48.790;8.990;2022-10-26T14:22:02;51.56;47.72;58.15;;
68945;Laerm;55984;48.790;8.990;2022-10-26T14:24:34;50.90;47.57;57.43;;
68945;Laerm;55984;48.790;8.990;2022-10-26T14:27:01;49.65;46.98;54.64;;
68945;Laerm;55984;48.790;8.990;2022-10-26T14:29:31;49.53;47.06;54.13;;
68945;Laerm;55984;48.790;8.990;2022-10-26T14:31:56;49.11;47.11;54.40;;
68945;Laerm;55984;48.790;8.990;2022-10-26T14:34:22;48.70;46.84;54.10;;
68945;Laerm;55984;48.790;8.990;2022-10-26T14:36:55;49.47;47.07;63.70;;
68945;Laerm;55984;48.790;8.990;2022-10-26T14:39:38;49.15;46.90;53.64;;
68945;Laerm;55984;48.790;8.990;2022-10-26T14:42:39;49.45;46.91;55.22;;
68945;Laerm;55984;48.790;8.990;2022-10-26T14:47:51;49.13;46.87;54.77;;
68945;Laerm;55984;48.790;8.990;2022-10-26T14:50:20;49.28;46.84;54.38;;
68945;Laerm;55984;48.790;8.990;2022-10-26T14:52:54;49.05;46.75;54.09;;
68945;Laerm;55984;48.790;8.990;2022-10-26T14:55:21;48.84;46.83;54.38;;
68945;Laerm;55984;48.790;8.990;2022-10-26T14:58:06;48.65;46.87;54.07;;
68945;Laerm;55984;48.790;8.990;2022-10-26T15:00:32;48.76;46.75;62.30;;
68945;Laerm;55984;48.790;8.990;2022-10-26T15:03:01;49.92;46.99;61.85;;
68945;Laerm;55984;48.790;8.990;2022-10-26T15:05:29;49.92;46.93;62.26;;
68945;Laerm;55984;48.790;8.990;2022-10-26T15:07:58;49.35;46.54;60.92;;
68945;Laerm;55984;48.790;8.990;2022-10-26T15:13:26;49.10;46.80;59.70;;
68945;Laerm;55984;48.790;8.990;2022-10-26T15:15:56;48.69;46.55;59.47;;
68945;Laerm;55984;48.790;8.990;2022-10-26T15:18:27;48.78;46.53;58.83;;
68945;Laerm;55984;48.790;8.990;2022-10-26T15:20:54;48.39;46.53;59.08;;
68945;Laerm;55984;48.790;8.990;2022-10-26T15:23:21;49.00;46.31;59.07;;
68945;Laerm;55984;48.790;8.990;2022-10-26T15:25:56;47.93;46.61;56.83;;
68945;Laerm;55984;48.790;8.990;2022-10-26T15:28:29;48.04;46.83;51.13;;
68945;Laerm;55984;48.790;8.990;2022-10-26T15:33:23;48.06;46.70;50.18;;
68945;Laerm;55984;48.790;8.990;2022-10-26T15:35:49;47.94;46.58;61.66;;
68945;Laerm;55984;48.790;8.990;2022-10-26T15:38:14;47.79;46.34;50.56;;
68945;Laerm;55984;48.790;8.990;2022-10-26T15:40:43;47.73;46.43;49.98;;
68945;Laerm;55984;48.790;8.990;2022-10-26T15:43:10;47.60;46.38;50.15;;
68945;Laerm;55984;48.790;8.990;2022-10-26T15:45:44;47.50;46.28;50.35;;
68945;Laerm;55984;48.790;8.990;2022-10-26T15:48:36;47.46;46.26;53.70;;
68945;Laerm;55984;48.790;8.990;2022-10-26T15:51:03;47.53;46.37;50.59;;
68945;Laerm;55984;48.790;8.990;2022-10-26T15:53:30;47.62;46.55;50.37;;